Map

Track Data

SID SEASON NUMBER BASIN SUBBASIN NAME ISO_TIME NATURE LAT LON WMO_WIND WMO_PRES WMO_AGENCY TRACK_TYPE DIST2LAND LANDFALL IFLAG USA_AGENCY USA_ATCF_ID USA_LAT USA_LON USA_RECORD USA_STATUS USA_WIND USA_PRES USA_SSHS USA_R34_NE USA_R34_SE USA_R34_SW USA_R34_NW USA_R50_NE USA_R50_SE USA_R50_SW USA_R50_NW USA_R64_NE USA_R64_SE USA_R64_SW USA_R64_NW USA_POCI USA_ROCI USA_RMW USA_EYE TOKYO_LAT TOKYO_LON TOKYO_GRADE TOKYO_WIND TOKYO_PRES TOKYO_R50_DIR TOKYO_R50_LONG TOKYO_R50_SHORT TOKYO_R30_DIR TOKYO_R30_LONG TOKYO_R30_SHORT TOKYO_LAND CMA_LAT CMA_LON CMA_CAT CMA_WIND CMA_PRES HKO_LAT HKO_LON HKO_CAT HKO_WIND HKO_PRES NEWDELHI_LAT NEWDELHI_LON NEWDELHI_GRADE NEWDELHI_WIND NEWDELHI_PRES NEWDELHI_CI NEWDELHI_DP NEWDELHI_POCI REUNION_LAT REUNION_LON REUNION_TYPE REUNION_WIND REUNION_PRES REUNION_TNUM REUNION_CI REUNION_RMW REUNION_R34_NE REUNION_R34_SE REUNION_R34_SW REUNION_R34_NW REUNION_R50_NE REUNION_R50_SE REUNION_R50_SW REUNION_R50_NW REUNION_R64_NE REUNION_R64_SE REUNION_R64_SW REUNION_R64_NW BOM_LAT BOM_LON BOM_TYPE BOM_WIND BOM_PRES BOM_TNUM BOM_CI BOM_RMW BOM_R34_NE BOM_R34_SE BOM_R34_SW BOM_R34_NW BOM_R50_NE BOM_R50_SE BOM_R50_SW BOM_R50_NW BOM_R64_NE BOM_R64_SE BOM_R64_SW BOM_R64_NW BOM_ROCI BOM_POCI BOM_EYE BOM_POS_METHOD BOM_PRES_METHOD NADI_LAT NADI_LON NADI_CAT NADI_WIND NADI_PRES WELLINGTON_LAT WELLINGTON_LON WELLINGTON_WIND WELLINGTON_PRES DS824_LAT DS824_LON DS824_STAGE DS824_WIND DS824_PRES TD9636_LAT TD9636_LON TD9636_STAGE TD9636_WIND TD9636_PRES TD9635_LAT TD9635_LON TD9635_WIND TD9635_PRES TD9635_ROCI NEUMANN_LAT NEUMANN_LON NEUMANN_CLASS NEUMANN_WIND NEUMANN_PRES MLC_LAT MLC_LON MLC_CLASS MLC_WIND MLC_PRES USA_GUST BOM_GUST BOM_GUST_PER REUNION_GUST REUNION_GUST_PER USA_SEAHGT USA_SEARAD_NE USA_SEARAD_SE USA_SEARAD_SW USA_SEARAD_NW STORM_SPEED STORM_DIR
1923122N14085 1923 29 NI BB NOT_NAMED 1923-05-02 00:00:00 TS 13.5000 85.1000 main 459 449 _________O____ -1 13.5000 85.1000 TC 30 6 36
1923122N14085 1923 29 NI BB NOT_NAMED 1923-05-02 03:00:00 TS 13.7217 85.2700 main 457 441 _________PO___ -1 13.8326 85.3549 TC 31 13.5000 85.1000 1 7 34
1923122N14085 1923 29 NI BB NOT_NAMED 1923-05-02 06:00:00 TS 14.0845 85.5021 main 442 433 _________OP___ -1 14.2000 85.6000 TC 32 13.9112 85.3552 1 9 30
1923122N14085 1923 29 NI BB NOT_NAMED 1923-05-02 09:00:00 TS 14.4834 85.7266 main 433 425 _________PP___ -1 14.6150 85.8225 TC 33 14.3079 85.5988 1 9 28
1923122N14085 1923 29 NI BB NOT_NAMED 1923-05-02 12:00:00 TS 14.8378 85.9090 main 425 409 _________OP___ -1 15.0000 86.0000 TC 34 14.6756 85.8180 1 7 26
1923122N14085 1923 29 NI BB NOT_NAMED 1923-05-02 15:00:00 TS 15.1362 86.0538 main 416 394 _________PO___ -1 15.2725 86.1077 TC 41 15.0000 86.0000 2 6 25
1923122N14085 1923 29 NI BB NOT_NAMED 1923-05-02 18:00:00 TS 15.3868 86.1691 main 394 382 _________OP___ -1 15.5000 86.2000 TC 49 15.2735 86.1381 2 5 25
1923122N14085 1923 29 NI BB NOT_NAMED 1923-05-02 21:00:00 TS 15.6248 86.2930 main 382 363 _________PP___ -1 15.7350 86.3351 TC 56 15.5147 86.2509 2 6 28
1923122N14085 1923 29 NI BB NOT_NAMED 1923-05-03 00:00:00 TS 15.8743 86.4316 main 363 354 _________OP___ -1 16.0000 86.5000 TC 64 15.7485 86.3631 2 6 28
1923122N14085 1923 29 NI BB NOT_NAMED 1923-05-03 03:00:00 TS 16.1712 86.5925 main 354 346 _________PO___ -1 16.3425 86.6850 TC 64 16.0000 86.5000 4 7 29
1923122N14085 1923 29 NI BB NOT_NAMED 1923-05-03 06:00:00 TS 16.5038 86.8001 main 346 338 _________OP___ -1 16.7000 86.9000 TC 64 16.3076 86.7001 4 8 33
1923122N14085 1923 29 NI BB NOT_NAMED 1923-05-03 09:00:00 TS 16.8213 87.0387 main 338 332 _________PP___ -1 17.0075 87.1500 TC 64 16.6351 86.9273 4 8 36
1923122N14085 1923 29 NI BB NOT_NAMED 1923-05-03 12:00:00 TS 17.1350 87.2829 main 337 309 _________OP___ -1 17.3000 87.4000 TC 64 16.9701 87.1658 4 8 35
1923122N14085 1923 29 NI BB NOT_NAMED 1923-05-03 15:00:00 TS 17.4500 87.5038 main 313 286 _________PO___ -1 17.6000 87.6076 TC 64 17.3000 87.4000 4 8 33
1923122N14085 1923 29 NI BB NOT_NAMED 1923-05-03 18:00:00 TS 17.7617 87.7077 main 281 264 _________OP___ -1 17.9000 87.8000 TC 64 17.6234 87.6154 4 7 32
1923122N14085 1923 29 NI BB NOT_NAMED 1923-05-03 21:00:00 TS 18.0762 87.9150 main 264 252 _________PP___ -1 18.2150 88.0075 TC 64 17.9374 87.8225 4 7 32
1923122N14085 1923 29 NI BB NOT_NAMED 1923-05-04 00:00:00 TS 18.3664 88.1092 main 252 245 _________OP___ -1 18.5000 88.2000 TC 64 18.2328 88.0185 4 6 33
1923122N14085 1923 29 NI BB NOT_NAMED 1923-05-04 03:00:00 TS 18.6075 88.2788 main 253 244 _________PO___ -1 18.7150 88.3576 TC 64 18.5000 88.2000 4 5 34
1923122N14085 1923 29 NI BB NOT_NAMED 1923-05-04 06:00:00 TS 18.8123 88.4304 main 244 238 _________OP___ -1 18.9000 88.5000 TC 64 18.7246 88.3607 4 5 35
1923122N14085 1923 29 NI BB NOT_NAMED 1923-05-04 09:00:00 TS 19.0074 88.5790 main 246 239 _________PP___ -1 19.0925 88.6501 TC 64 18.9223 88.5080 4 5 35
1923122N14085 1923 29 NI BB NOT_NAMED 1923-05-04 12:00:00 TS 19.2045 88.7257 main 242 237 _________OP___ -1 19.3000 88.8000 TC 64 19.1089 88.6513 4 5 33
1923122N14085 1923 29 NI BB NOT_NAMED 1923-05-04 15:00:00 TS 19.4250 88.8713 main 246 212 _________PO___ -1 19.5500 88.9425 TC 64 19.3000 88.8000 4 5 31
1923122N14085 1923 29 NI BB NOT_NAMED 1923-05-04 18:00:00 TS 19.6649 89.0218 main 212 190 _________OP___ -1 19.8000 89.1000 TC 64 19.5298 88.9436 4 6 33
1923122N14085 1923 29 NI BB NOT_NAMED 1923-05-04 21:00:00 TS 19.8860 89.1877 main 190 170 _________PP___ -1 20.0074 89.2776 TC 64 19.7646 89.0977 4 6 39
1923122N14085 1923 29 NI BB NOT_NAMED 1923-05-05 00:00:00 TS 20.0961 89.3890 main 170 154 _________OP___ -1 20.2000 89.5000 TC 64 19.9922 89.2780 4 6 45
1923122N14085 1923 29 NI BB NOT_NAMED 1923-05-05 03:00:00 TS 20.3075 89.6387 main 154 143 _________PO___ -1 20.4150 89.7775 TC 64 20.2000 89.5000 4 7 53
1923122N14085 1923 29 NI BB NOT_NAMED 1923-05-05 06:00:00 TS 20.4920 89.9429 main 143 134 _________OP___ -1 20.6000 90.1000 TC 64 20.3839 89.7859 4 7 62
1923122N14085 1923 29 NI BB NOT_NAMED 1923-05-05 09:00:00 TS 20.6301 90.2812 main 134 123 _________PP___ -1 20.7150 90.4501 TC 64 20.5453 90.1124 4 7 69
1923122N14085 1923 29 NI BB NOT_NAMED 1923-05-05 12:00:00 TS 20.7420 90.6289 main 129 123 _________OP___ -1 20.8000 90.8000 TC 64 20.6839 90.4577 4 7 70
1923122N14085 1923 29 NI BB NOT_NAMED 1923-05-05 15:00:00 TS 20.8537 90.9538 main 114 98 _________PO___ -1 20.9074 91.1075 TC 55 20.8000 90.8000 4 6 71
1923122N14085 1923 29 NI BB NOT_NAMED 1923-05-05 18:00:00 TS 20.9398 91.2411 main 98 66 _________OP___ -1 21.0000 91.4000 TC 47 20.8947 91.1219 4 6 74
1923122N14085 1923 29 NI BB NOT_NAMED 1923-05-05 21:00:00 TS 21.0076 91.5340 main 66 33 _________PP___ -1 21.0601 91.6975 TC 38 20.9726 91.4250 4 5 77
1923122N14085 1923 29 NI BB NOT_NAMED 1923-05-06 00:00:00 TS 21.0595 91.8104 main 33 15 _________OP___ -1 21.1000 92.0000 TC 30 21.0392 91.7156 4 4 78
1923122N14085 1923 29 NI BB NOT_NAMED 1923-05-06 03:00:00 NR 21.1000 92.0000 main 15 __________O___ -1 TC 21.1000 92.0000 1 4 77

About IBTrACS Database

This database is a web-friendly format of International Best Track Archive for Climate Stewardship (IBTrACS), a global best track data archive curated by NOAA dating back to 1842.

Updated: 2021-12-01